createdAt,value
2018-11-21T00:00:24.887Z,59.93
2018-11-21T00:02:50.474Z,60.25
2018-11-21T00:05:15.680Z,59.88
2018-11-21T00:07:40.760Z,59.86
2018-11-21T00:10:08.395Z,60.52
2018-11-21T00:12:33.498Z,60.21
2018-11-21T00:14:58.593Z,60.26
2018-11-21T00:17:23.760Z,59.38
2018-11-21T00:19:48.824Z,60.18
2018-11-21T00:22:13.897Z,60.52
2018-11-21T00:24:58.137Z,59.96
2018-11-21T00:27:23.257Z,59.77
2018-11-21T00:29:48.376Z,60.36
2018-11-21T00:32:32.143Z,60.91
2018-11-21T00:34:57.270Z,59.95
2018-11-21T00:37:23.110Z,60.26
2018-11-21T00:39:48.201Z,60.42
2018-11-21T00:42:32.273Z,60.65
2018-11-21T00:44:57.355Z,59.96
2018-11-21T00:47:22.465Z,60.19
2018-11-21T00:49:47.538Z,59.58
2018-11-21T00:52:12.668Z,59.83
2018-11-21T00:54:56.699Z,60.68
2018-11-21T01:00:17.650Z,60.57
2018-11-21T01:02:42.763Z,60.61
2018-11-21T01:05:08.532Z,60.80
2018-11-21T01:07:33.621Z,60.54
2018-11-21T01:09:58.684Z,60.28
2018-11-21T01:12:42.742Z,60.37
2018-11-21T01:15:08.010Z,60.34
2018-11-21T01:17:33.099Z,60.59
2018-11-21T01:20:17.254Z,61.02
2018-11-21T01:22:42.354Z,60.14
2018-11-21T01:25:08.088Z,60.54
2018-11-21T01:30:24.915Z,59.96
2018-11-21T01:32:49.991Z,60.77
2018-11-21T01:35:15.105Z,60.28
2018-11-21T01:37:40.191Z,60.21
2018-11-21T01:40:05.365Z,59.84
2018-11-21T01:42:30.536Z,60.54
2018-11-21T01:44:55.619Z,60.15
2018-11-21T01:47:39.681Z,60.06
2018-11-21T01:50:04.705Z,60.41
2018-11-21T01:52:29.767Z,60.22
2018-11-21T01:54:54.841Z,59.80
2018-11-21T01:57:38.863Z,60.55
2018-11-21T02:00:04.118Z,61.40
2018-11-21T02:02:29.360Z,60.74
2018-11-21T02:04:54.443Z,60.65
2018-11-21T02:07:19.521Z,61.35
2018-11-21T02:09:44.608Z,60.83
2018-11-21T02:12:09.700Z,61.33
2018-11-21T02:14:34.778Z,60.67
2018-11-21T02:17:18.847Z,61.32
2018-11-21T02:19:43.984Z,60.12
2018-11-21T02:22:09.135Z,59.66
2018-11-21T02:24:34.325Z,59.81
2018-11-21T02:26:59.402Z,60.66
2018-11-21T02:29:24.463Z,60.15
2018-11-21T02:31:49.548Z,59.78
2018-11-21T02:34:14.614Z,60.94
2018-11-21T02:36:51.914Z,60.58
2018-11-21T02:39:17.032Z,60.33
2018-11-21T02:41:42.111Z,60.42
2018-11-21T02:44:07.489Z,60.48
2018-11-21T02:46:51.526Z,60.63
2018-11-21T02:51:53.368Z,60.09
2018-11-21T02:54:18.443Z,60.84
2018-11-21T02:57:40.188Z,60.63
2018-11-21T03:00:34.414Z,61.21
2018-11-21T03:02:59.552Z,60.21
2018-11-21T03:05:24.654Z,60.21
2018-11-21T03:07:50.462Z,60.57
2018-11-21T03:10:34.565Z,61.69
2018-11-21T03:12:59.652Z,61.77
2018-11-21T03:15:24.734Z,60.95
2018-11-21T03:17:49.776Z,60.48
2018-11-21T03:20:14.909Z,61.11
2018-11-21T03:22:40.082Z,61.15
2018-11-21T03:25:05.201Z,61.04
2018-11-21T03:27:30.300Z,61.57
2018-11-21T03:29:55.397Z,61.53
2018-11-21T03:32:20.518Z,61.56
2018-11-21T03:34:45.682Z,62.46
2018-11-21T03:39:47.011Z,60.90
2018-11-21T03:42:12.064Z,60.75
2018-11-21T03:44:37.186Z,60.75
2018-11-21T03:47:13.850Z,61.34
2018-11-21T03:49:57.922Z,60.65
2018-11-21T03:52:23.034Z,61.44
2018-11-21T03:54:48.141Z,60.70
2018-11-21T03:57:25.298Z,61.02
2018-11-21T03:59:50.364Z,60.95
2018-11-21T04:02:15.448Z,61.36
2018-11-21T04:04:40.649Z,61.66
2018-11-21T04:07:05.754Z,61.32
2018-11-21T04:09:49.777Z,61.24
2018-11-21T04:12:14.886Z,61.32
2018-11-21T04:14:59.064Z,60.94
2018-11-21T04:17:24.181Z,61.06
2018-11-21T04:19:49.226Z,61.32
2018-11-21T04:22:33.248Z,61.03
2018-11-21T04:24:58.299Z,61.10
2018-11-21T04:27:42.503Z,61.63
2018-11-21T04:32:45.296Z,60.98
2018-11-21T04:35:10.644Z,61.04
2018-11-21T04:37:35.703Z,61.70
2018-11-21T04:40:00.812Z,61.11
2018-11-21T04:42:25.891Z,61.61
2018-11-21T04:44:51.026Z,61.18
2018-11-21T04:47:16.133Z,60.76
2018-11-21T04:49:41.203Z,60.76
2018-11-21T04:52:06.277Z,61.78
2018-11-21T04:54:31.421Z,60.98
2018-11-21T04:56:56.510Z,61.41
2018-11-21T04:59:21.609Z,61.37
2018-11-21T05:01:46.809Z,61.82
2018-11-21T05:04:11.907Z,61.38
2018-11-21T05:06:37.089Z,62.10
2018-11-21T05:09:02.340Z,61.50
2018-11-21T05:11:27.441Z,61.52
2018-11-21T05:13:52.543Z,61.44
2018-11-21T05:16:17.655Z,60.63
2018-11-21T05:18:42.757Z,60.94
2018-11-21T05:21:07.892Z,61.10
2018-11-21T05:23:51.905Z,60.95
2018-11-21T05:26:17.003Z,60.56
2018-11-21T05:28:42.088Z,60.28
2018-11-21T05:31:07.563Z,60.33
2018-11-21T05:33:32.631Z,60.72
2018-11-21T05:38:34.400Z,60.22
2018-11-21T05:40:59.484Z,60.79
2018-11-21T05:43:24.540Z,60.94
2018-11-21T05:45:49.684Z,60.25
2018-11-21T05:48:14.775Z,61.17
2018-11-21T05:50:39.908Z,60.36
2018-11-21T05:53:04.953Z,60.17
2018-11-21T05:55:30.015Z,60.33
2018-11-21T05:57:55.125Z,60.36
2018-11-21T06:00:20.203Z,60.84
2018-11-21T06:02:45.306Z,60.31
2018-11-21T06:05:11.425Z,59.80
2018-11-21T06:07:36.555Z,59.81
2018-11-21T06:10:01.653Z,60.42
2018-11-21T06:12:34.086Z,60.14
2018-11-21T06:14:59.190Z,60.30
2018-11-21T06:17:24.445Z,60.39
2018-11-21T06:19:49.546Z,59.73
2018-11-21T06:22:14.646Z,59.95
2018-11-21T06:24:39.748Z,59.95
2018-11-21T06:27:04.949Z,59.78
2018-11-21T06:29:30.098Z,59.88
2018-11-21T06:31:55.224Z,59.72
2018-11-21T06:34:20.335Z,60.31
2018-11-21T06:36:45.464Z,59.48
2018-11-21T06:39:10.637Z,59.40
2018-11-21T06:41:54.693Z,59.57
2018-11-21T06:44:38.813Z,59.91
2018-11-21T06:47:03.947Z,59.30
2018-11-21T06:49:29.063Z,59.21
2018-11-21T06:51:54.168Z,59.14
2018-11-21T06:54:38.192Z,59.45
2018-11-21T06:57:22.279Z,59.41
2018-11-21T06:59:47.354Z,59.36
2018-11-21T07:02:12.463Z,58.92
2018-11-21T07:04:37.562Z,59.70
2018-11-21T07:07:02.667Z,59.27
2018-11-21T07:09:27.742Z,59.03
2018-11-21T07:11:52.844Z,59.37
2018-11-21T07:16:57.027Z,59.34
2018-11-21T07:19:41.070Z,58.99
2018-11-21T07:22:17.806Z,59.11
2018-11-21T07:24:42.886Z,59.20
2018-11-21T07:27:26.918Z,58.90
2018-11-21T07:29:52.035Z,58.89
2018-11-21T07:32:17.184Z,59.17
2018-11-21T07:35:01.218Z,58.92
2018-11-21T07:37:26.492Z,59.71
2018-11-21T07:39:51.569Z,60.04
2018-11-21T07:42:16.706Z,59.93
2018-11-21T07:44:41.841Z,59.92
2018-11-21T07:47:06.908Z,59.21
2018-11-21T07:49:32.033Z,59.06
2018-11-21T07:51:57.157Z,58.84
2018-11-21T07:54:22.219Z,59.40
2018-11-21T07:57:25.276Z,59.47
2018-11-21T08:00:28.356Z,58.83
2018-11-21T08:02:53.430Z,58.76
2018-11-21T08:05:26.171Z,59.30
2018-11-21T08:08:09.940Z,58.89
2018-11-21T08:10:53.723Z,59.46
2018-11-21T08:13:37.504Z,59.64
2018-11-21T08:16:40.269Z,59.40
2018-11-21T08:19:15.786Z,60.03
2018-11-21T08:24:35.462Z,59.26
2018-11-21T08:27:19.221Z,59.73
2018-11-21T08:30:03.257Z,59.80
2018-11-21T08:32:28.331Z,59.42
2018-11-21T08:34:53.461Z,59.02
2018-11-21T08:37:18.543Z,59.16
2018-11-21T08:39:43.611Z,59.80
2018-11-21T08:42:08.673Z,59.39
2018-11-21T08:44:52.684Z,59.25
2018-11-21T08:47:17.807Z,59.81
2018-11-21T08:49:42.889Z,59.90
2018-11-21T08:52:07.983Z,60.04
2018-11-21T08:54:33.081Z,59.43
2018-11-21T08:56:58.183Z,59.29
2018-11-21T08:59:23.238Z,59.39
2018-11-21T09:01:48.274Z,58.34
2018-11-21T09:04:13.405Z,58.89
2018-11-21T09:06:38.479Z,59.22
2018-11-21T09:09:03.589Z,59.55
2018-11-21T09:11:30.849Z,59.17
2018-11-21T09:13:55.916Z,59.06
2018-11-21T09:16:20.968Z,58.45
2018-11-21T09:18:46.021Z,58.73
2018-11-21T09:21:11.116Z,57.77
2018-11-21T09:23:55.112Z,58.44
2018-11-21T09:26:39.178Z,58.60
2018-11-21T09:29:04.249Z,57.35
2018-11-21T09:31:29.316Z,57.10
2018-11-21T09:33:54.380Z,57.75
2018-11-21T09:36:19.458Z,58.48
2018-11-21T09:38:44.573Z,57.91
2018-11-21T09:41:09.682Z,58.19
2018-11-21T09:46:11.525Z,57.94
2018-11-21T09:48:36.640Z,57.49
2018-11-21T09:51:01.693Z,57.15
2018-11-21T09:53:26.753Z,56.17
2018-11-21T09:55:51.829Z,56.61
2018-11-21T09:58:16.938Z,56.03
2018-11-21T10:01:20.010Z,56.69
2018-11-21T10:03:45.079Z,57.42
2018-11-21T10:06:30.395Z,57.09
2018-11-21T10:09:09.486Z,57.73
2018-11-21T10:11:53.539Z,58.22
2018-11-21T10:14:18.631Z,58.42
2018-11-21T10:16:43.696Z,59.20
2018-11-21T10:19:08.836Z,58.21
2018-11-21T10:21:35.119Z,57.48
2018-11-21T10:24:00.234Z,57.98
2018-11-21T10:26:25.353Z,57.04
2018-11-21T10:28:51.327Z,57.57
2018-11-21T10:31:16.444Z,57.81
2018-11-21T10:33:41.493Z,58.11
2018-11-21T10:36:06.768Z,58.47
2018-11-21T10:38:31.810Z,59.19
2018-11-21T10:40:56.914Z,58.82
2018-11-21T10:43:21.992Z,58.12
2018-11-21T10:45:47.134Z,58.03
2018-11-21T10:48:12.226Z,58.76
2018-11-21T10:50:37.351Z,57.79
2018-11-21T10:53:02.518Z,58.00
2018-11-21T10:55:27.634Z,58.59
2018-11-21T10:57:52.707Z,58.69
2018-11-21T11:00:36.493Z,58.19
2018-11-21T11:05:56.686Z,58.21
2018-11-21T11:08:40.478Z,58.19
2018-11-21T11:11:24.581Z,58.05
2018-11-21T11:14:27.375Z,58.25
2018-11-21T11:17:11.141Z,59.20
2018-11-21T11:19:45.583Z,58.65
2018-11-21T11:22:20.383Z,59.60
2018-11-21T11:25:04.238Z,59.10
2018-11-21T11:27:48.012Z,58.94
2018-11-21T11:30:31.932Z,60.09
2018-11-21T11:33:15.642Z,59.86
2018-11-21T11:35:59.438Z,59.35
2018-11-21T11:38:43.211Z,59.62
2018-11-21T11:41:27.036Z,59.10
2018-11-21T11:44:10.810Z,58.59
2018-11-21T11:46:54.668Z,59.49
2018-11-21T11:49:38.468Z,58.73
2018-11-21T11:52:22.264Z,58.40
2018-11-21T11:55:06.094Z,58.89
2018-11-21T11:57:49.888Z,59.03
2018-11-21T12:00:33.716Z,59.49
2018-11-21T12:03:36.482Z,59.74
2018-11-21T12:06:20.250Z,58.25
2018-11-21T12:09:23.026Z,58.19
2018-11-21T12:12:06.849Z,58.28
2018-11-21T12:14:50.620Z,58.87
2018-11-21T12:17:34.404Z,59.26
2018-11-21T12:20:18.219Z,59.32
2018-11-21T12:23:01.971Z,59.42
2018-11-21T12:25:45.768Z,58.68
2018-11-21T12:28:48.526Z,58.71
2018-11-21T12:31:32.376Z,59.14
2018-11-21T12:34:16.176Z,58.37
2018-11-21T12:37:00.001Z,58.50
2018-11-21T12:39:43.821Z,58.96
2018-11-21T12:42:27.651Z,58.64
2018-11-21T12:45:11.425Z,58.14
2018-11-21T12:51:13.419Z,59.22
2018-11-21T12:53:57.232Z,58.74
2018-11-21T12:56:41.071Z,59.70
2018-11-21T12:59:25.102Z,58.72
2018-11-21T13:02:27.887Z,58.91
2018-11-21T13:05:10.685Z,59.02
2018-11-21T13:07:54.510Z,59.36
2018-11-21T13:10:38.288Z,59.23
2018-11-21T13:25:07.642Z,59.78
2018-11-21T13:27:51.432Z,59.67
2018-11-21T13:30:54.185Z,59.37
2018-11-21T13:33:37.986Z,60.04
2018-11-21T13:36:21.893Z,59.34
2018-11-21T13:39:05.715Z,59.33
2018-11-21T13:45:07.302Z,60.24
2018-11-21T13:50:46.699Z,60.05
2018-11-21T13:53:30.495Z,59.60
2018-11-21T13:55:55.578Z,60.52
2018-11-21T14:00:56.680Z,59.45
2018-11-21T14:03:21.774Z,60.49
2018-11-21T14:05:46.877Z,60.52
2018-11-21T14:08:11.992Z,60.07
2018-11-21T14:10:37.080Z,60.17
2018-11-21T14:13:02.172Z,59.33
2018-11-21T14:15:27.355Z,59.61
2018-11-21T14:17:52.415Z,60.32
2018-11-21T14:20:17.480Z,60.17
2018-11-21T14:22:42.602Z,59.95
2018-11-21T14:25:09.617Z,59.43
2018-11-21T14:27:34.686Z,60.44
2018-11-21T14:29:59.771Z,60.13
2018-11-21T14:32:24.876Z,59.48
2018-11-21T14:34:49.973Z,60.65
2018-11-21T14:37:34.098Z,61.19
2018-11-21T14:39:59.245Z,60.80
2018-11-21T14:42:24.409Z,61.20
2018-11-21T14:44:49.486Z,60.71
2018-11-21T14:47:16.321Z,61.20
2018-11-21T14:49:41.431Z,61.86
2018-11-21T14:54:50.689Z,60.90
2018-11-21T14:57:34.785Z,60.75
2018-11-21T14:59:59.899Z,61.40
2018-11-21T15:02:25.027Z,61.28
2018-11-21T15:04:50.118Z,61.15
2018-11-21T15:09:51.323Z,61.64
2018-11-21T15:12:16.438Z,61.48
2018-11-21T15:14:41.527Z,61.46
2018-11-21T15:17:06.705Z,61.88
2018-11-21T15:19:31.825Z,61.98
2018-11-21T15:21:57.242Z,61.60
2018-11-21T15:24:22.343Z,61.20
2018-11-21T15:26:47.468Z,62.23
2018-11-21T15:29:12.832Z,61.46
2018-11-21T15:31:37.926Z,61.50
2018-11-21T15:34:02.979Z,62.29
2018-11-21T15:36:47.047Z,61.81
2018-11-21T15:39:31.110Z,62.63
2018-11-21T15:41:56.272Z,62.51
2018-11-21T15:44:21.364Z,62.16
2018-11-21T15:46:46.436Z,62.45
2018-11-21T15:49:11.546Z,62.60
2018-11-21T15:51:36.700Z,62.24
2018-11-21T15:54:02.036Z,62.25
2018-11-21T15:56:27.121Z,62.65
2018-11-21T15:58:52.231Z,62.60
2018-11-21T16:01:17.400Z,62.22
2018-11-21T16:03:42.529Z,61.98
2018-11-21T16:06:07.648Z,62.57
2018-11-21T16:08:32.762Z,62.02
2018-11-21T16:10:57.924Z,62.17
2018-11-21T16:13:23.050Z,61.83
2018-11-21T16:16:07.902Z,62.48
2018-11-21T16:18:33.036Z,62.13
2018-11-21T16:20:58.137Z,62.53
2018-11-21T16:23:23.300Z,62.79
2018-11-21T16:25:48.431Z,62.73
2018-11-21T16:28:13.555Z,63.29
2018-11-21T16:30:38.687Z,64.13
2018-11-21T16:33:03.812Z,64.53
2018-11-21T16:35:28.931Z,63.54
2018-11-21T16:37:54.208Z,64.28
2018-11-21T16:40:21.118Z,64.39
2018-11-21T16:42:46.409Z,64.34
2018-11-21T16:45:30.569Z,63.89
2018-11-21T16:47:55.745Z,64.93
2018-11-21T16:50:21.255Z,64.27
2018-11-21T16:52:46.419Z,64.78
2018-11-21T16:55:13.225Z,64.80
2018-11-21T16:57:57.978Z,64.49
2018-11-21T17:00:24.748Z,64.08
2018-11-21T17:02:49.850Z,64.02
2018-11-21T17:05:16.366Z,64.12
2018-11-21T17:07:42.056Z,63.88
2018-11-21T17:10:29.654Z,63.59
2018-11-21T17:12:54.862Z,63.77
2018-11-21T17:15:21.734Z,63.95
2018-11-21T17:17:47.172Z,63.41
2018-11-21T17:20:18.061Z,63.10
2018-11-21T17:22:43.429Z,63.32
2018-11-21T17:25:12.419Z,63.48
2018-11-21T17:27:37.572Z,64.50
2018-11-21T17:30:02.747Z,63.84
2018-11-21T17:32:27.848Z,63.64
2018-11-21T17:34:52.970Z,63.64
2018-11-21T17:37:18.085Z,63.34
2018-11-21T17:39:43.384Z,63.49
2018-11-21T17:42:08.440Z,64.35
2018-11-21T17:44:33.597Z,65.30
2018-11-21T17:46:58.693Z,65.80
2018-11-21T17:49:23.809Z,65.20
2018-11-21T17:51:48.920Z,64.94
2018-11-21T17:54:14.009Z,65.33
2018-11-21T17:56:39.169Z,65.60
2018-11-21T17:59:04.355Z,65.45
2018-11-21T18:01:29.466Z,65.18
2018-11-21T18:03:54.585Z,65.31
2018-11-21T18:06:19.781Z,66.57
2018-11-21T18:08:44.891Z,65.97
2018-11-21T18:11:10.078Z,65.75
2018-11-21T18:13:35.199Z,65.48
2018-11-21T18:16:00.375Z,65.78
2018-11-21T18:18:26.227Z,66.16
2018-11-21T18:20:51.348Z,66.43
2018-11-21T18:23:16.509Z,65.80
2018-11-21T18:25:43.818Z,66.22
2018-11-21T18:28:09.059Z,66.46
2018-11-21T18:33:12.982Z,66.36
2018-11-21T18:35:38.127Z,66.42
2018-11-21T18:38:03.224Z,66.50
2018-11-21T18:40:29.793Z,66.47
2018-11-21T18:42:55.019Z,66.29
2018-11-21T18:45:23.536Z,66.81
2018-11-21T18:47:49.040Z,66.60
2018-11-21T18:50:15.635Z,66.32
2018-11-21T18:52:40.785Z,66.44
2018-11-21T18:55:07.953Z,66.69
2018-11-21T18:58:11.097Z,66.62
2018-11-21T19:00:55.938Z,67.22
2018-11-21T19:03:21.148Z,66.83
2018-11-21T19:05:58.945Z,67.22
2018-11-21T19:08:24.660Z,68.04
2018-11-21T19:10:50.302Z,66.58
2018-11-21T19:13:15.374Z,66.66
2018-11-21T19:15:40.506Z,66.32
2018-11-21T19:18:05.845Z,66.23
2018-11-21T19:20:31.060Z,66.66
2018-11-21T19:22:56.175Z,66.84
2018-11-21T19:25:21.359Z,66.50
2018-11-21T19:27:46.534Z,66.15
2018-11-21T19:30:13.541Z,66.48
2018-11-21T19:32:58.400Z,66.35
2018-11-21T19:35:41.754Z,66.04
2018-11-21T19:38:07.072Z,66.26
2018-11-21T19:40:32.315Z,66.35
2018-11-21T19:42:57.470Z,66.58
2018-11-21T19:45:22.657Z,66.60
2018-11-21T19:47:48.311Z,66.20
2018-11-21T19:50:14.793Z,65.45
2018-11-21T19:52:40.896Z,65.34
2018-11-21T19:57:44.424Z,65.41
2018-11-21T20:00:31.902Z,65.64
2018-11-21T20:02:57.051Z,65.76
2018-11-21T20:05:22.380Z,65.75
2018-11-21T20:07:47.466Z,65.02
2018-11-21T20:10:13.723Z,64.85
2018-11-21T20:12:40.051Z,64.53
2018-11-21T20:15:04.638Z,64.49
2018-11-21T20:17:29.871Z,64.67
2018-11-21T20:19:55.032Z,65.25
2018-11-21T20:22:20.246Z,64.54
2018-11-21T20:24:45.394Z,65.27
2018-11-21T20:27:10.574Z,64.64
2018-11-21T20:29:35.680Z,65.32
2018-11-21T20:32:00.849Z,65.33
2018-11-21T20:34:25.970Z,65.09
2018-11-21T20:36:51.160Z,65.17
2018-11-21T20:41:52.995Z,64.63
2018-11-21T20:44:18.139Z,65.47
2018-11-21T20:46:43.322Z,66.15
2018-11-21T20:49:11.503Z,65.96
2018-11-21T20:51:34.051Z,65.65
2018-11-21T20:56:36.007Z,65.05
2018-11-21T20:59:01.158Z,65.29
2018-11-21T21:01:26.260Z,65.84
2018-11-21T21:03:51.412Z,66.04
2018-11-21T21:06:16.529Z,65.54
2018-11-21T21:08:41.711Z,65.35
2018-11-21T21:11:06.996Z,65.14
2018-11-21T21:13:32.654Z,65.63
2018-11-21T21:15:57.722Z,66.00
2018-11-21T21:18:22.817Z,65.42
2018-11-21T21:20:47.934Z,65.62
2018-11-21T21:23:13.131Z,66.15
2018-11-21T21:25:38.238Z,65.61
2018-11-21T21:28:03.350Z,65.46
2018-11-21T21:30:29.968Z,65.96
2018-11-21T21:32:55.068Z,66.18
2018-11-21T21:35:20.813Z,65.66
2018-11-21T21:37:45.943Z,66.28
2018-11-21T21:40:13.066Z,65.39
2018-11-21T21:42:38.538Z,65.15
2018-11-21T21:45:03.668Z,65.47
2018-11-21T21:47:47.746Z,65.42
2018-11-21T21:50:13.745Z,65.27
2018-11-21T21:52:38.846Z,64.70
2018-11-21T21:55:04.112Z,64.84
2018-11-21T21:57:29.390Z,65.95
2018-11-21T21:59:54.502Z,65.53
2018-11-21T22:02:19.589Z,64.57
2018-11-21T22:04:44.707Z,64.76
2018-11-21T22:07:09.786Z,65.25
2018-11-21T22:09:34.915Z,64.93
2018-11-21T22:12:00.008Z,64.86
2018-11-21T22:14:25.113Z,65.06
2018-11-21T22:16:50.210Z,64.79
2018-11-21T22:19:15.263Z,64.40
2018-11-21T22:21:40.386Z,64.77
2018-11-21T22:24:05.466Z,64.72
2018-11-21T22:26:30.554Z,64.61
2018-11-21T22:28:55.615Z,64.73
2018-11-21T22:31:20.713Z,64.37
2018-11-21T22:33:45.794Z,64.93
2018-11-21T22:36:29.870Z,64.84
2018-11-21T22:38:54.958Z,65.48
2018-11-21T22:41:20.044Z,64.93
2018-11-21T22:46:24.291Z,65.00
2018-11-21T22:48:49.398Z,64.42
2018-11-21T22:51:14.475Z,65.32
2018-11-21T22:53:39.601Z,64.62
2018-11-21T22:56:04.691Z,64.47
2018-11-21T22:58:48.777Z,64.43
2018-11-21T23:01:14.175Z,64.84
2018-11-21T23:03:39.287Z,64.98
2018-11-21T23:06:04.388Z,65.06
2018-11-21T23:08:29.484Z,65.48
2018-11-21T23:10:54.577Z,65.65
2018-11-21T23:13:19.730Z,64.96
2018-11-21T23:15:44.797Z,65.04
2018-11-21T23:18:09.980Z,65.71
2018-11-21T23:20:35.084Z,65.66
2018-11-21T23:23:19.093Z,65.53
2018-11-21T23:25:44.194Z,65.86
2018-11-21T23:28:09.269Z,65.40
2018-11-21T23:30:53.360Z,65.13
2018-11-21T23:33:18.433Z,65.63
2018-11-21T23:35:43.615Z,66.12
2018-11-21T23:38:08.788Z,65.32
2018-11-21T23:43:29.662Z,65.91
2018-11-21T23:45:54.775Z,66.30
2018-11-21T23:48:19.899Z,66.50
2018-11-21T23:50:44.979Z,65.65
2018-11-21T23:53:10.077Z,65.27
2018-11-21T23:55:35.206Z,65.72
2018-11-21T23:58:00.316Z,65.73
